Terminal Aerodrome Forecast
Issued by NWS

Current Version | Previous Version | Graphics & Text | Print | Product List | Glossary On
Versions: 1 2 3 4 5 6 7 8 9 10 11 12 13 14 15 16 17 18 19 20 21 22 23
186
FTUS41 KRLX 252331
TAFCKB
TAF
KCKB 252331Z 2600/2624 31006KT 4SM -SHRADZ BR SCT010 OVC015
      TEMPO 2600/2603 6SM BR SCT015 OVC030
     FM260400 31003KT P6SM BKN025
     FM260900 00000KT 2SM BR BKN010
     FM261100 00000KT 1/4SM FG OVC001
     FM261300 00000KT 4SM BR BKN015
     FM261400 00000KT P6SM BKN025
     FM261700 00000KT P6SM SCT035
     FM262000 00000KT P6SM SCT200=

USA.gov is the U.S. government's official web portal to all federal, state and local government web resources and services.